createdAt,value
2022-10-20T00:02:22.225Z,25.93
2022-10-20T00:04:49.210Z,20.77
2022-10-20T00:07:16.215Z,22.53
2022-10-20T00:09:43.228Z,22.67
2022-10-20T00:12:10.215Z,24.30
2022-10-20T00:14:37.243Z,32.20
2022-10-20T00:17:05.393Z,28.67
2022-10-20T00:19:32.929Z,26.27
2022-10-20T00:22:00.302Z,26.53
2022-10-20T00:24:27.282Z,25.80
2022-10-20T00:26:54.259Z,25.23
2022-10-20T00:29:21.247Z,27.90
2022-10-20T00:31:48.221Z,28.23
2022-10-20T00:34:15.204Z,23.43
2022-10-20T00:36:42.243Z,25.17
2022-10-20T00:39:09.259Z,28.13
2022-10-20T00:41:36.432Z,25.43
2022-10-20T00:44:23.388Z,26.73
2022-10-20T00:46:50.440Z,24.50
2022-10-20T00:49:24.600Z,35.03
2022-10-20T00:51:52.978Z,28.40
2022-10-20T00:54:22.339Z,33.90
2022-10-20T00:56:50.304Z,29.90
2022-10-20T00:59:19.518Z,28.13
2022-10-20T01:01:47.171Z,30.30
2022-10-20T01:04:14.466Z,27.77
2022-10-20T01:06:41.482Z,28.90
2022-10-20T01:09:08.787Z,26.03
2022-10-20T01:11:54.350Z,26.90
2022-10-20T01:14:39.310Z,25.77
2022-10-20T01:17:26.989Z,26.43
2022-10-20T01:20:09.338Z,26.20
2022-10-20T01:22:36.284Z,27.00
2022-10-20T01:25:06.253Z,29.97
2022-10-20T01:27:34.931Z,29.80
2022-10-20T01:30:07.433Z,26.60
2022-10-20T01:32:34.758Z,24.07
2022-10-20T01:35:24.751Z,26.37
2022-10-20T01:37:54.252Z,24.57
2022-10-20T01:40:27.757Z,22.53
2022-10-20T01:42:55.976Z,20.57
2022-10-20T01:45:25.019Z,23.67
2022-10-20T01:47:52.401Z,26.07
2022-10-20T01:50:20.260Z,25.90
2022-10-20T01:52:47.369Z,23.30
2022-10-20T01:55:15.503Z,29.63
2022-10-20T01:58:07.276Z,31.23
2022-10-20T02:00:36.981Z,33.90
2022-10-20T02:03:22.598Z,36.63
2022-10-20T02:05:53.807Z,34.27
2022-10-20T02:08:29.342Z,33.73
2022-10-20T02:10:58.624Z,30.27
2022-10-20T02:13:26.171Z,32.80
2022-10-20T02:15:54.703Z,36.50
2022-10-20T02:18:25.046Z,32.93
2022-10-20T02:20:53.281Z,31.77
2022-10-20T02:23:20.394Z,32.30
2022-10-20T02:25:51.944Z,31.83
2022-10-20T02:28:20.323Z,29.70
2022-10-20T02:30:48.083Z,33.83
2022-10-20T02:33:15.752Z,30.70
2022-10-20T02:35:44.351Z,29.23
2022-10-20T02:38:11.310Z,27.23
2022-10-20T02:40:38.298Z,25.47
2022-10-20T02:43:05.274Z,26.90
2022-10-20T02:45:32.253Z,25.57
2022-10-20T02:47:59.438Z,26.37
2022-10-20T02:50:26.416Z,23.57
2022-10-20T02:52:53.487Z,23.97
2022-10-20T02:55:20.469Z,21.93
2022-10-20T02:57:47.474Z,22.67
2022-10-20T03:00:15.173Z,20.80
2022-10-20T03:02:42.162Z,22.70
2022-10-20T03:05:09.279Z,19.73
2022-10-20T03:07:36.656Z,22.13
2022-10-20T03:10:03.967Z,19.77
2022-10-20T03:12:32.242Z,23.03
2022-10-20T03:14:59.402Z,23.93
2022-10-20T03:17:26.369Z,25.33
2022-10-20T03:19:53.349Z,26.23
2022-10-20T03:22:20.371Z,26.03
2022-10-20T03:24:47.378Z,19.83
2022-10-20T03:27:14.433Z,21.20
2022-10-20T03:29:41.398Z,21.67
2022-10-20T03:32:08.349Z,20.77
2022-10-20T03:34:35.339Z,26.03
2022-10-20T03:37:02.385Z,26.70
2022-10-20T03:39:29.382Z,26.90
2022-10-20T03:41:57.745Z,25.90
2022-10-20T03:44:25.279Z,26.60
2022-10-20T03:46:52.270Z,29.67
2022-10-20T03:49:19.237Z,29.10
2022-10-20T03:51:46.209Z,30.20
2022-10-20T03:54:13.186Z,28.57
2022-10-20T03:56:40.147Z,30.90
2022-10-20T03:59:07.117Z,27.97
2022-10-20T04:01:35.356Z,27.67
2022-10-20T04:04:02.452Z,26.17
2022-10-20T04:06:29.475Z,28.70
2022-10-20T04:08:56.495Z,30.90
2022-10-20T04:11:24.011Z,30.00
2022-10-20T04:13:51.542Z,31.90
2022-10-20T04:16:18.535Z,24.90
2022-10-20T04:18:45.625Z,29.33
2022-10-20T04:21:12.592Z,27.63
2022-10-20T04:23:39.587Z,27.67
2022-10-20T04:26:13.734Z,28.00
2022-10-20T04:28:40.855Z,25.87
2022-10-20T04:31:08.444Z,28.73
2022-10-20T04:33:35.735Z,28.83
2022-10-20T04:36:04.519Z,26.77
2022-10-20T04:38:31.895Z,27.57
2022-10-20T04:41:01.874Z,29.83
2022-10-20T04:43:31.720Z,34.43
2022-10-20T04:46:05.412Z,35.40
2022-10-20T04:48:35.118Z,36.83
2022-10-20T04:51:03.123Z,33.60
2022-10-20T04:53:30.128Z,30.50
2022-10-20T04:55:57.937Z,32.47
2022-10-20T04:58:25.795Z,32.90
2022-10-20T05:00:52.904Z,33.27
2022-10-20T05:03:20.275Z,32.77
2022-10-20T05:05:47.679Z,31.57
2022-10-20T05:08:14.795Z,33.07
2022-10-20T05:10:41.916Z,33.83
2022-10-20T05:13:08.887Z,29.93
2022-10-20T05:15:35.863Z,31.13
2022-10-20T05:18:02.829Z,32.97
2022-10-20T05:20:36.730Z,32.80
2022-10-20T05:23:12.927Z,32.03
2022-10-20T05:25:40.109Z,38.37
2022-10-20T05:28:07.322Z,31.00
2022-10-20T05:30:37.529Z,33.00
2022-10-20T05:33:04.602Z,30.37
2022-10-20T05:35:32.160Z,34.13
2022-10-20T05:37:59.203Z,32.33
2022-10-20T05:40:26.274Z,37.87
2022-10-20T05:42:53.241Z,36.33
2022-10-20T05:45:20.215Z,34.63
2022-10-20T05:47:47.166Z,34.87
2022-10-20T05:50:14.135Z,34.07
2022-10-20T05:52:41.136Z,33.27
2022-10-20T05:55:08.598Z,34.17
2022-10-20T05:57:35.659Z,38.17
2022-10-20T06:00:02.688Z,37.07
2022-10-20T06:02:29.647Z,30.27
2022-10-20T06:04:56.602Z,33.57
2022-10-20T06:07:23.558Z,34.00
2022-10-20T06:09:50.524Z,31.27
2022-10-20T06:12:17.490Z,35.47
2022-10-20T06:14:44.459Z,30.87
2022-10-20T06:17:11.448Z,30.57
2022-10-20T06:19:38.423Z,34.23
2022-10-20T06:22:06.623Z,31.37
2022-10-20T06:24:34.074Z,29.80
2022-10-20T06:27:01.041Z,32.85
2022-10-20T06:29:28.095Z,30.07
2022-10-20T06:31:55.864Z,28.07
2022-10-20T06:34:24.427Z,32.03
2022-10-20T06:36:51.712Z,27.80
2022-10-20T06:39:19.870Z,27.17
2022-10-20T06:41:48.468Z,32.33
2022-10-20T06:44:15.444Z,38.57
2022-10-20T06:46:42.419Z,28.73
2022-10-20T06:49:11.493Z,27.73
2022-10-20T06:51:38.675Z,28.17
2022-10-20T06:54:06.446Z,31.10
2022-10-20T06:56:34.841Z,26.80
2022-10-20T06:59:02.411Z,28.00
2022-10-20T07:01:30.592Z,26.98
2022-10-20T07:03:59.076Z,26.67
2022-10-20T07:06:28.311Z,24.10
2022-10-20T07:08:59.021Z,20.73
2022-10-20T07:11:27.135Z,20.90
2022-10-20T07:13:54.392Z,22.17
2022-10-20T07:16:22.567Z,23.07
2022-10-20T07:18:49.943Z,25.30
2022-10-20T07:21:18.244Z,25.60
2022-10-20T07:23:45.942Z,28.83
2022-10-20T07:26:17.465Z,25.00
2022-10-20T07:28:45.323Z,22.83
2022-10-20T07:31:14.043Z,20.53
2022-10-20T07:33:41.239Z,18.47
2022-10-20T07:36:19.671Z,19.70
2022-10-20T07:38:47.609Z,19.63
2022-10-20T07:41:15.423Z,15.03
2022-10-20T07:43:43.036Z,14.47
2022-10-20T07:46:11.029Z,13.67
2022-10-20T07:48:38.358Z,13.53
2022-10-20T07:53:46.631Z,14.63
2022-10-20T07:56:13.991Z,12.60
2022-10-20T07:58:41.033Z,12.33
2022-10-20T08:01:08.427Z,12.43
2022-10-20T08:03:35.859Z,13.63
2022-10-20T08:06:02.877Z,12.30
2022-10-20T08:08:29.906Z,11.80
2022-10-20T08:10:58.136Z,13.97
2022-10-20T08:13:25.918Z,11.67
2022-10-20T08:15:54.076Z,13.40
2022-10-20T08:18:26.241Z,15.77
2022-10-20T08:20:53.215Z,11.93
2022-10-20T08:23:20.239Z,10.37
2022-10-20T08:25:47.215Z,10.90
2022-10-20T08:28:14.212Z,13.40
2022-10-20T08:30:41.184Z,11.90
2022-10-20T08:33:08.147Z,10.60
2022-10-20T08:35:35.345Z,10.20
2022-10-20T08:38:02.379Z,13.00
2022-10-20T08:40:31.079Z,11.13
2022-10-20T08:42:58.350Z,11.43
2022-10-20T08:45:26.903Z,10.53
2022-10-20T08:47:55.178Z,9.40
2022-10-20T08:50:22.982Z,9.93
2022-10-20T08:52:54.707Z,9.93
2022-10-20T08:55:29.403Z,10.05
2022-10-20T08:57:59.466Z,9.17
2022-10-20T09:00:26.656Z,10.53
2022-10-20T09:02:54.187Z,9.37
2022-10-20T09:05:23.601Z,12.40
2022-10-20T09:07:51.343Z,10.20
2022-10-20T09:10:24.249Z,10.33
2022-10-20T09:12:52.055Z,9.17
2022-10-20T09:15:20.152Z,9.17
2022-10-20T09:17:49.385Z,9.27
2022-10-20T09:20:19.990Z,8.73
2022-10-20T09:22:47.795Z,9.50
2022-10-20T09:25:16.801Z,9.27
2022-10-20T09:27:45.127Z,10.77
2022-10-20T09:30:15.083Z,10.83
2022-10-20T09:32:46.961Z,8.90
2022-10-20T09:35:20.590Z,7.50
2022-10-20T09:37:56.118Z,9.80
2022-10-20T09:40:24.118Z,8.40
2022-10-20T09:42:53.629Z,7.50
2022-10-20T09:45:22.563Z,8.97
2022-10-20T09:47:51.989Z,8.93
2022-10-20T09:50:21.247Z,9.10
2022-10-20T09:52:48.547Z,8.20
2022-10-20T09:55:26.070Z,9.30
2022-10-20T09:57:53.703Z,6.97
2022-10-20T10:00:38.543Z,7.03
2022-10-20T10:03:09.926Z,7.27
2022-10-20T10:05:36.617Z,6.07
2022-10-20T10:08:03.229Z,8.03
2022-10-20T10:10:31.885Z,7.60
2022-10-20T10:13:01.076Z,8.97
2022-10-20T10:15:31.763Z,6.50
2022-10-20T10:17:59.679Z,9.50
2022-10-20T10:20:34.056Z,8.67
2022-10-20T10:23:20.900Z,7.80
2022-10-20T10:25:48.375Z,5.90
2022-10-20T10:28:21.097Z,6.07
2022-10-20T10:30:50.081Z,6.30
2022-10-20T10:33:28.939Z,7.27
2022-10-20T10:35:56.475Z,5.53
2022-10-20T10:38:23.076Z,6.00
2022-10-20T10:40:58.991Z,6.70
2022-10-20T10:43:39.288Z,7.57
2022-10-20T10:46:17.180Z,7.77
2022-10-20T10:48:47.215Z,6.30
2022-10-20T10:51:16.947Z,7.20
2022-10-20T10:53:43.929Z,6.27
2022-10-20T10:56:23.249Z,6.20
2022-10-20T10:59:19.804Z,6.00
2022-10-20T11:02:05.709Z,7.13
2022-10-20T11:04:47.895Z,8.20
2022-10-20T11:07:16.951Z,7.23
2022-10-20T11:09:53.547Z,6.03
2022-10-20T11:12:48.975Z,6.43
2022-10-20T11:15:36.706Z,6.77
2022-10-20T11:18:12.230Z,6.40
2022-10-20T11:20:53.979Z,6.40
2022-10-20T11:26:14.816Z,6.80
2022-10-20T11:28:46.928Z,5.87
2022-10-20T11:31:25.514Z,6.17
2022-10-20T11:34:03.110Z,7.07
2022-10-20T11:36:33.319Z,8.30
2022-10-20T11:39:00.440Z,8.70
2022-10-20T11:41:27.390Z,7.13
2022-10-20T11:44:00.646Z,6.47
2022-10-20T11:46:32.906Z,7.33
2022-10-20T11:49:01.823Z,8.10
2022-10-20T11:51:30.246Z,6.70
2022-10-20T11:54:31.807Z,6.73
2022-10-20T11:57:19.232Z,6.93
2022-10-20T12:00:04.421Z,7.37
2022-10-20T12:02:52.970Z,5.90
2022-10-20T12:05:49.682Z,7.23
2022-10-20T12:08:35.050Z,6.33
2022-10-20T12:11:16.520Z,7.57
2022-10-20T12:14:19.019Z,7.30
2022-10-20T12:16:54.707Z,8.97
2022-10-20T12:19:32.517Z,9.30
2022-10-20T12:22:24.560Z,7.97
2022-10-20T12:24:53.900Z,5.20
2022-10-20T12:27:21.641Z,9.33
2022-10-20T12:30:11.163Z,7.43
2022-10-20T12:32:53.559Z,6.93
2022-10-20T12:35:20.061Z,6.03
2022-10-20T12:38:02.318Z,5.97
2022-10-20T12:40:40.753Z,7.83
2022-10-20T12:43:28.412Z,6.83
2022-10-20T12:45:59.384Z,7.03
2022-10-20T12:48:26.888Z,7.23
2022-10-20T12:51:01.729Z,11.47
2022-10-20T12:53:30.720Z,7.50
2022-10-20T12:56:05.380Z,8.07
2022-10-20T12:58:37.660Z,7.17
2022-10-20T13:01:12.196Z,7.23
2022-10-20T13:04:06.502Z,7.37
2022-10-20T13:06:47.176Z,7.03
2022-10-20T13:09:23.863Z,9.87
2022-10-20T13:11:54.935Z,9.40
2022-10-20T13:14:34.077Z,7.17
2022-10-20T13:17:16.370Z,7.27
2022-10-20T13:19:50.646Z,8.77
2022-10-20T13:22:38.836Z,8.20
2022-10-20T13:25:07.573Z,8.83
2022-10-20T13:27:34.871Z,8.77
2022-10-20T13:30:06.761Z,9.43
2022-10-20T13:33:18.133Z,9.37
2022-10-20T13:35:48.095Z,9.63
2022-10-20T13:38:24.081Z,9.93
2022-10-20T13:41:08.644Z,10.23
2022-10-20T13:43:56.683Z,7.70
2022-10-20T13:46:42.108Z,8.13
2022-10-20T13:49:33.339Z,10.93
2022-10-20T13:52:05.824Z,8.60
2022-10-20T13:54:36.852Z,8.05
2022-10-20T13:57:06.117Z,9.20
2022-10-20T13:59:33.383Z,8.47
2022-10-20T14:02:20.709Z,10.90
2022-10-20T14:04:47.307Z,7.57
2022-10-20T14:07:15.634Z,6.97
2022-10-20T14:09:45.959Z,10.10
2022-10-20T14:12:22.592Z,8.03
2022-10-20T14:14:49.278Z,8.43
2022-10-20T14:17:21.509Z,9.30
2022-10-20T14:19:48.553Z,8.50
2022-10-20T14:22:22.927Z,8.87
2022-10-20T14:24:52.697Z,8.23
2022-10-20T14:27:25.580Z,8.10
2022-10-20T14:29:52.786Z,6.53
2022-10-20T14:32:22.332Z,6.83
2022-10-20T14:35:21.645Z,12.07
2022-10-20T14:37:58.618Z,10.47
2022-10-20T14:40:29.651Z,9.40
2022-10-20T14:43:04.406Z,10.10
2022-10-20T14:48:02.778Z,13.07
2022-10-20T14:50:35.564Z,10.87
2022-10-20T14:53:27.277Z,8.80
2022-10-20T14:55:55.691Z,9.90
2022-10-20T14:58:55.694Z,7.97
2022-10-20T15:01:27.543Z,8.03
2022-10-20T15:04:04.269Z,7.43
2022-10-20T15:06:31.100Z,7.63
2022-10-20T15:08:57.866Z,12.20
2022-10-20T15:11:26.991Z,8.80
2022-10-20T15:13:55.709Z,9.63
2022-10-20T15:16:44.050Z,6.83
2022-10-20T15:19:34.806Z,11.63
2022-10-20T15:22:07.185Z,8.00
2022-10-20T15:24:33.819Z,10.87
2022-10-20T15:27:02.436Z,10.83
2022-10-20T15:29:29.995Z,8.27
2022-10-20T15:31:57.004Z,7.50
2022-10-20T15:34:23.563Z,10.80
2022-10-20T15:36:51.133Z,8.70
2022-10-20T15:39:17.968Z,9.03
2022-10-20T15:41:44.537Z,9.07
2022-10-20T15:44:23.925Z,9.70
2022-10-20T15:46:55.378Z,9.23
2022-10-20T15:49:24.855Z,16.33
2022-10-20T15:51:51.939Z,10.43
2022-10-20T15:54:20.069Z,10.53
2022-10-20T15:56:47.148Z,10.03
2022-10-20T15:59:14.121Z,10.73
2022-10-20T16:01:41.122Z,12.53
2022-10-20T16:04:16.715Z,12.90
2022-10-20T16:06:43.686Z,13.23
2022-10-20T16:09:13.426Z,9.30
2022-10-20T16:11:42.886Z,11.40
2022-10-20T16:14:10.591Z,10.47
2022-10-20T16:16:37.655Z,10.63
2022-10-20T16:19:05.058Z,11.00
2022-10-20T16:21:32.927Z,14.03
2022-10-20T16:24:01.020Z,14.65
2022-10-20T16:26:28.111Z,15.27
2022-10-20T16:28:55.144Z,13.43
2022-10-20T16:31:22.167Z,11.17
2022-10-20T16:33:49.162Z,13.63
2022-10-20T16:36:17.111Z,10.63
2022-10-20T16:38:44.354Z,11.67
2022-10-20T16:41:12.931Z,10.97
2022-10-20T16:43:45.024Z,12.80
2022-10-20T16:46:12.590Z,12.07
2022-10-20T16:48:42.570Z,15.90
2022-10-20T16:51:11.641Z,11.63
2022-10-20T16:53:38.800Z,13.83
2022-10-20T16:56:05.944Z,14.93
2022-10-20T16:58:33.035Z,14.93
2022-10-20T17:01:06.171Z,13.37
2022-10-20T17:03:33.540Z,12.93
2022-10-20T17:06:02.941Z,11.90
2022-10-20T17:08:31.836Z,14.73
2022-10-20T17:11:00.020Z,13.47
2022-10-20T17:13:27.486Z,12.60
2022-10-20T17:15:54.770Z,14.30
2022-10-20T17:18:22.365Z,13.00
2022-10-20T17:20:53.152Z,12.70
2022-10-20T17:23:20.517Z,15.47
2022-10-20T17:25:47.525Z,13.30
2022-10-20T17:28:14.535Z,16.87
2022-10-20T17:30:45.550Z,11.93
2022-10-20T17:33:12.730Z,16.17
2022-10-20T17:35:40.099Z,14.70
2022-10-20T17:38:07.215Z,17.27
2022-10-20T17:40:37.943Z,12.27
2022-10-20T17:43:05.059Z,13.87
2022-10-20T17:45:34.953Z,11.07
2022-10-20T17:48:04.613Z,17.80
2022-10-20T17:50:31.578Z,13.97
2022-10-20T17:53:01.918Z,15.00
2022-10-20T17:55:29.300Z,15.23
2022-10-20T17:57:56.758Z,14.00
2022-10-20T18:00:43.877Z,14.27
2022-10-20T18:03:10.751Z,14.47
2022-10-20T18:05:37.726Z,13.93
2022-10-20T18:08:04.772Z,14.63
2022-10-20T18:10:31.744Z,16.07
2022-10-20T18:12:58.718Z,15.48
2022-10-20T18:15:25.687Z,13.50
2022-10-20T18:17:52.712Z,13.47
2022-10-20T18:20:19.777Z,13.03
2022-10-20T18:22:46.756Z,19.60
2022-10-20T18:25:13.755Z,13.00
2022-10-20T18:27:40.749Z,17.30
2022-10-20T18:30:08.415Z,20.70
2022-10-20T18:32:36.689Z,15.77
2022-10-20T18:35:04.003Z,17.43
2022-10-20T18:37:30.983Z,15.70
2022-10-20T18:39:59.254Z,14.73
2022-10-20T18:42:26.256Z,37.27
2022-10-20T18:44:53.264Z,63.73
2022-10-20T18:47:20.469Z,22.47
2022-10-20T18:49:47.447Z,21.57
2022-10-20T18:52:14.419Z,24.75
2022-10-20T18:54:41.395Z,28.47
2022-10-20T18:57:08.367Z,28.03
2022-10-20T18:59:35.351Z,25.90
2022-10-20T19:02:02.315Z,22.67
2022-10-20T19:04:29.298Z,32.27
2022-10-20T19:06:56.486Z,24.87
2022-10-20T19:09:23.511Z,21.07
2022-10-20T19:14:22.659Z,24.00
2022-10-20T19:16:50.105Z,25.70
2022-10-20T19:19:17.519Z,36.50
2022-10-20T19:21:44.935Z,39.57
2022-10-20T19:24:17.618Z,25.73
2022-10-20T19:26:52.798Z,24.45
2022-10-20T19:29:29.338Z,22.17
2022-10-20T19:31:57.832Z,25.27
2022-10-20T19:34:26.791Z,22.17
2022-10-20T19:36:54.491Z,26.33
2022-10-20T19:41:57.270Z,24.70
2022-10-20T19:44:24.646Z,24.17
2022-10-20T19:46:51.781Z,32.13
2022-10-20T19:49:19.481Z,29.10
2022-10-20T19:51:46.553Z,33.53
2022-10-20T19:54:14.674Z,27.10
2022-10-20T19:56:42.720Z,25.03
2022-10-20T19:59:10.001Z,28.00
2022-10-20T20:01:37.722Z,27.90
2022-10-20T20:04:04.857Z,24.77
2022-10-20T20:06:31.855Z,30.48
2022-10-20T20:09:00.782Z,33.33
2022-10-20T20:11:30.683Z,33.10
2022-10-20T20:13:58.983Z,33.97
2022-10-20T20:16:26.307Z,37.80
2022-10-20T20:19:05.115Z,33.33
2022-10-20T20:21:32.458Z,33.60
2022-10-20T20:24:01.412Z,32.70
2022-10-20T20:26:29.591Z,31.47
2022-10-20T20:28:56.705Z,31.60
2022-10-20T20:31:24.075Z,31.37
2022-10-20T20:33:51.123Z,35.23
2022-10-20T20:36:18.135Z,33.00
2022-10-20T20:38:45.607Z,37.40
2022-10-20T20:41:13.840Z,31.55
2022-10-20T20:43:41.257Z,35.27
2022-10-20T20:46:09.811Z,42.53
2022-10-20T20:48:36.919Z,34.07
2022-10-20T20:51:04.599Z,37.87
2022-10-20T20:55:59.800Z,32.73
2022-10-20T20:58:27.763Z,36.80
2022-10-20T21:01:01.374Z,55.33
2022-10-20T21:03:29.166Z,59.50
2022-10-20T21:05:56.345Z,48.23
2022-10-20T21:08:23.402Z,33.37
2022-10-20T21:10:50.374Z,44.20
2022-10-20T21:13:17.403Z,36.10
2022-10-20T21:15:44.366Z,34.00
2022-10-20T21:18:11.334Z,32.57
2022-10-20T21:20:38.365Z,43.37
2022-10-20T21:23:05.399Z,53.13
2022-10-20T21:25:32.562Z,39.63
2022-10-20T21:27:59.554Z,51.23
2022-10-20T21:30:27.069Z,65.33
2022-10-20T21:32:54.096Z,49.60
2022-10-20T21:35:21.067Z,41.03
2022-10-20T21:37:48.254Z,40.23
2022-10-20T21:40:15.247Z,53.03
2022-10-20T21:42:42.283Z,40.07
2022-10-20T21:45:09.368Z,53.83
2022-10-20T21:47:36.429Z,52.73
2022-10-20T21:50:03.491Z,57.57
2022-10-20T21:52:30.521Z,47.77
2022-10-20T21:54:57.496Z,37.37
2022-10-20T21:57:24.498Z,52.88
2022-10-20T21:59:51.473Z,53.73
2022-10-20T22:02:18.508Z,44.83
2022-10-20T22:04:45.532Z,49.70
2022-10-20T22:07:12.551Z,43.23
2022-10-20T22:09:39.586Z,43.30
2022-10-20T22:12:06.649Z,43.47
2022-10-20T22:14:33.717Z,46.53
2022-10-20T22:17:01.007Z,54.03
2022-10-20T22:19:28.059Z,49.80
2022-10-20T22:21:55.161Z,52.67
2022-10-20T22:24:22.625Z,56.20
2022-10-20T22:26:51.438Z,54.87
2022-10-20T22:29:19.083Z,64.63
2022-10-20T22:31:46.180Z,51.20
2022-10-20T22:34:14.119Z,57.73
2022-10-20T22:36:41.168Z,69.27
2022-10-20T22:39:08.941Z,68.17
2022-10-20T22:41:36.229Z,55.27
2022-10-20T22:44:03.207Z,59.67
2022-10-20T22:46:30.211Z,71.00
2022-10-20T22:51:29.215Z,58.23
2022-10-20T22:53:56.202Z,54.47
2022-10-20T22:56:23.597Z,58.97
2022-10-20T22:58:52.168Z,58.13
2022-10-20T23:01:20.473Z,61.00
2022-10-20T23:03:48.087Z,64.87
2022-10-20T23:06:17.122Z,67.93
2022-10-20T23:08:48.246Z,69.27
2022-10-20T23:11:16.494Z,60.67
2022-10-20T23:13:43.707Z,80.70
2022-10-20T23:16:11.128Z,88.50
2022-10-20T23:18:38.460Z,64.67
2022-10-20T23:21:05.854Z,64.17
2022-10-20T23:23:33.191Z,55.47
2022-10-20T23:26:03.652Z,57.83
2022-10-20T23:28:31.722Z,80.80
2022-10-20T23:31:09.477Z,80.80
2022-10-20T23:33:37.009Z,73.10
2022-10-20T23:36:04.233Z,85.93
2022-10-20T23:38:31.229Z,86.60
2022-10-20T23:40:58.206Z,78.80
2022-10-20T23:43:25.295Z,70.97
2022-10-20T23:45:52.398Z,76.10
2022-10-20T23:48:19.358Z,72.30
2022-10-20T23:50:46.536Z,96.28
2022-10-20T23:53:13.524Z,71.77
2022-10-20T23:55:40.713Z,96.33
2022-10-20T23:58:07.699Z,87.73
